createdAt,value
2019-02-20T00:01:25.119Z,11.67
2019-02-20T00:03:54.459Z,7.80
2019-02-20T00:06:25.135Z,11.10
2019-02-20T00:08:54.839Z,6.93
2019-02-20T00:11:24.211Z,9.80
2019-02-20T00:13:53.488Z,7.70
2019-02-20T00:16:22.840Z,7.50
2019-02-20T00:18:52.200Z,9.33
2019-02-20T00:21:21.868Z,9.83
2019-02-20T00:23:51.137Z,7.37
2019-02-20T00:26:20.426Z,13.43
2019-02-20T00:28:49.823Z,10.70
2019-02-20T00:31:19.154Z,9.03
2019-02-20T00:33:48.435Z,9.67
2019-02-20T00:36:17.763Z,11.27
2019-02-20T00:38:47.071Z,10.47
2019-02-20T00:41:16.376Z,11.17
2019-02-20T00:43:49.197Z,10.57
2019-02-20T00:46:28.019Z,9.87
2019-02-20T00:49:01.880Z,7.50
2019-02-20T00:51:53.225Z,12.07
2019-02-20T00:54:22.518Z,9.10
2019-02-20T00:56:51.837Z,9.33
2019-02-20T00:59:21.130Z,7.90
2019-02-20T01:01:50.417Z,9.13
2019-02-20T01:04:19.840Z,11.03
2019-02-20T01:06:49.272Z,8.73
2019-02-20T01:09:18.593Z,11.20
2019-02-20T01:11:47.843Z,8.10
2019-02-20T01:14:17.158Z,9.07
2019-02-20T01:16:46.446Z,9.07
2019-02-20T01:19:15.739Z,9.47
2019-02-20T01:21:45.021Z,12.60
2019-02-20T01:24:14.302Z,9.67
2019-02-20T01:26:43.618Z,8.37
2019-02-20T01:29:12.880Z,6.13
2019-02-20T01:31:42.288Z,9.97
2019-02-20T01:34:11.644Z,10.03
2019-02-20T01:36:40.903Z,8.63
2019-02-20T01:39:10.206Z,8.87
2019-02-20T01:41:39.520Z,8.27
2019-02-20T01:44:08.798Z,9.07
2019-02-20T01:46:38.051Z,8.50
2019-02-20T01:49:07.330Z,8.13
2019-02-20T01:51:36.592Z,9.60
2019-02-20T01:54:05.912Z,9.50
2019-02-20T01:56:35.245Z,7.20
2019-02-20T01:59:04.540Z,12.20
2019-02-20T02:01:39.694Z,6.70
2019-02-20T02:04:08.947Z,7.17
2019-02-20T02:06:38.259Z,9.60
2019-02-20T02:09:08.559Z,8.87
2019-02-20T02:11:37.854Z,9.17
2019-02-20T02:14:07.172Z,9.43
2019-02-20T02:16:36.439Z,8.70
2019-02-20T02:19:05.886Z,8.47
2019-02-20T02:21:35.268Z,7.67
2019-02-20T02:24:04.947Z,7.90
2019-02-20T02:26:34.238Z,11.20
2019-02-20T02:29:03.537Z,11.30
2019-02-20T02:31:32.819Z,7.57
2019-02-20T02:34:02.860Z,8.57
2019-02-20T02:36:32.122Z,9.53
2019-02-20T02:39:01.495Z,10.33
2019-02-20T02:41:30.743Z,9.60
2019-02-20T02:44:00.291Z,10.47
2019-02-20T02:46:29.545Z,8.80
2019-02-20T02:48:58.826Z,8.50
2019-02-20T02:51:28.121Z,9.97
2019-02-20T02:53:57.434Z,10.77
2019-02-20T02:56:26.779Z,9.33
2019-02-20T02:58:56.069Z,9.77
2019-02-20T03:01:25.351Z,7.57
2019-02-20T03:03:54.624Z,8.83
2019-02-20T03:06:23.897Z,12.03
2019-02-20T03:08:53.228Z,7.90
2019-02-20T03:11:22.830Z,8.93
2019-02-20T03:13:52.292Z,7.17
2019-02-20T03:16:21.548Z,8.53
2019-02-20T03:18:50.855Z,8.47
2019-02-20T03:21:20.163Z,11.17
2019-02-20T03:23:49.452Z,9.43
2019-02-20T03:26:19.213Z,9.13
2019-02-20T03:28:48.536Z,8.80
2019-02-20T03:31:17.846Z,14.50
2019-02-20T03:33:47.161Z,12.17
2019-02-20T03:36:16.419Z,9.53
2019-02-20T03:38:45.719Z,11.67
2019-02-20T03:41:14.991Z,12.43
2019-02-20T03:43:44.266Z,11.27
2019-02-20T03:46:13.593Z,11.90
2019-02-20T03:48:42.878Z,10.20
2019-02-20T03:51:12.126Z,10.00
2019-02-20T03:53:50.890Z,11.63
2019-02-20T03:56:12.462Z,11.80
2019-02-20T03:58:41.759Z,12.37
2019-02-20T04:01:11.155Z,8.57
2019-02-20T04:03:40.447Z,9.37
2019-02-20T04:06:09.790Z,9.77
2019-02-20T04:08:39.124Z,8.77
2019-02-20T04:11:08.404Z,8.73
2019-02-20T04:13:37.692Z,9.17
2019-02-20T04:16:06.975Z,9.53
2019-02-20T04:18:36.231Z,10.30
2019-02-20T04:21:05.574Z,11.23
2019-02-20T04:23:34.845Z,11.13
2019-02-20T04:26:04.182Z,9.67
2019-02-20T04:28:33.512Z,13.63
2019-02-20T04:31:02.831Z,11.23
2019-02-20T04:33:32.126Z,11.37
2019-02-20T04:36:01.553Z,14.13
2019-02-20T04:38:31.847Z,11.07
2019-02-20T04:41:01.175Z,9.83
2019-02-20T04:43:30.505Z,14.63
2019-02-20T04:45:59.821Z,10.07
2019-02-20T04:48:29.102Z,9.80
2019-02-20T04:50:58.413Z,9.63
2019-02-20T04:53:27.675Z,10.37
2019-02-20T04:55:57.039Z,9.53
2019-02-20T04:58:26.338Z,10.97
2019-02-20T05:00:55.611Z,15.43
2019-02-20T05:03:24.936Z,13.77
2019-02-20T05:05:54.250Z,9.30
2019-02-20T05:08:23.523Z,12.93
2019-02-20T05:10:53.030Z,9.53
2019-02-20T05:13:22.323Z,10.80
2019-02-20T05:15:51.589Z,10.13
2019-02-20T05:18:20.958Z,11.47
2019-02-20T05:20:50.278Z,10.95
2019-02-20T05:23:19.570Z,11.57
2019-02-20T05:25:49.021Z,13.10
2019-02-20T05:28:18.349Z,11.50
2019-02-20T05:30:47.625Z,15.70
2019-02-20T05:33:16.911Z,9.70
2019-02-20T05:35:46.256Z,13.57
2019-02-20T05:38:15.618Z,13.03
2019-02-20T05:40:44.955Z,13.27
2019-02-20T05:43:14.252Z,12.30
2019-02-20T05:45:43.559Z,10.57
2019-02-20T05:48:12.883Z,10.60
2019-02-20T05:50:42.178Z,13.57
2019-02-20T05:53:13.548Z,12.17
2019-02-20T05:55:42.843Z,10.27
2019-02-20T05:58:12.534Z,13.95
2019-02-20T06:00:41.790Z,12.07
2019-02-20T06:03:11.168Z,11.27
2019-02-20T06:05:40.523Z,15.08
2019-02-20T06:08:09.815Z,12.13
2019-02-20T06:10:39.126Z,11.38
2019-02-20T06:13:08.793Z,12.83
2019-02-20T06:15:38.083Z,13.23
2019-02-20T06:18:07.410Z,12.23
2019-02-20T06:20:37.160Z,13.67
2019-02-20T06:23:06.543Z,15.33
2019-02-20T06:25:35.791Z,15.47
2019-02-20T06:28:05.522Z,14.03
2019-02-20T06:30:34.875Z,14.97
2019-02-20T06:33:04.299Z,14.30
2019-02-20T06:35:33.752Z,12.47
2019-02-20T06:38:03.167Z,15.03
2019-02-20T06:40:32.451Z,15.60
2019-02-20T06:43:01.842Z,14.17
2019-02-20T06:45:31.285Z,18.47
2019-02-20T06:48:00.550Z,12.50
2019-02-20T06:50:29.833Z,13.23
2019-02-20T06:52:59.141Z,13.97
2019-02-20T06:55:28.473Z,16.60
2019-02-20T06:57:57.760Z,12.00
2019-02-20T07:00:27.075Z,13.43
2019-02-20T07:02:56.401Z,17.83
2019-02-20T07:05:44.016Z,20.10
2019-02-20T07:08:35.924Z,17.60
2019-02-20T07:11:54.718Z,19.30
2019-02-20T07:15:08.162Z,19.40
2019-02-20T07:18:10.804Z,15.27
2019-02-20T07:21:16.851Z,14.27
2019-02-20T07:24:27.400Z,18.23
2019-02-20T07:27:28.778Z,18.07
2019-02-20T07:30:02.375Z,16.47
2019-02-20T07:32:32.498Z,15.13
2019-02-20T07:35:01.828Z,15.00
2019-02-20T07:37:31.130Z,18.97
2019-02-20T07:40:00.599Z,17.30
2019-02-20T07:42:30.165Z,18.20
2019-02-20T07:45:01.827Z,19.33
2019-02-20T07:47:31.112Z,18.67
2019-02-20T07:50:02.164Z,19.47
2019-02-20T07:52:31.476Z,19.73
2019-02-20T07:55:00.836Z,17.33
2019-02-20T07:57:30.125Z,21.30
2019-02-20T07:59:59.500Z,19.53
2019-02-20T08:02:28.864Z,19.27
2019-02-20T08:04:58.225Z,16.90
2019-02-20T08:07:27.616Z,17.47
2019-02-20T08:09:56.960Z,18.93
2019-02-20T08:12:26.286Z,19.30
2019-02-20T08:14:55.621Z,21.43
2019-02-20T08:17:25.289Z,20.00
2019-02-20T08:19:54.591Z,24.13
2019-02-20T08:22:23.866Z,20.50
2019-02-20T08:24:53.194Z,17.47
2019-02-20T08:27:22.532Z,18.50
2019-02-20T08:29:51.856Z,23.43
2019-02-20T08:32:21.157Z,22.53
2019-02-20T08:34:50.523Z,23.07
2019-02-20T08:37:20.032Z,23.07
2019-02-20T08:39:52.642Z,19.47
2019-02-20T08:42:21.963Z,20.10
2019-02-20T08:44:51.323Z,23.13
2019-02-20T08:47:20.651Z,20.33
2019-02-20T08:49:50.072Z,24.23
2019-02-20T08:52:19.404Z,19.57
2019-02-20T08:54:48.728Z,19.90
2019-02-20T08:57:18.074Z,16.50
2019-02-20T08:59:47.382Z,23.33
2019-02-20T09:02:16.752Z,21.60
2019-02-20T09:04:47.104Z,20.53
2019-02-20T09:07:16.601Z,23.10
2019-02-20T09:09:46.467Z,18.50
2019-02-20T09:12:15.926Z,23.67
2019-02-20T09:14:45.272Z,23.97
2019-02-20T09:17:14.581Z,19.30
2019-02-20T09:19:43.901Z,21.43
2019-02-20T09:22:13.249Z,23.40
2019-02-20T09:24:42.563Z,20.33
2019-02-20T09:27:11.891Z,21.60
2019-02-20T09:29:41.205Z,19.27
2019-02-20T09:32:10.564Z,20.57
2019-02-20T09:34:39.944Z,23.90
2019-02-20T09:37:09.375Z,21.20
2019-02-20T09:39:39.221Z,19.70
2019-02-20T09:42:10.852Z,20.00
2019-02-20T09:44:46.019Z,20.43
2019-02-20T09:47:15.409Z,21.80
2019-02-20T09:49:44.764Z,18.93
2019-02-20T09:52:14.048Z,19.37
2019-02-20T09:54:43.353Z,18.77
2019-02-20T09:57:12.674Z,17.80
2019-02-20T09:59:41.954Z,21.37
2019-02-20T10:02:11.308Z,17.50
2019-02-20T10:04:40.598Z,20.57
2019-02-20T10:07:09.930Z,19.17
2019-02-20T10:09:39.291Z,18.57
2019-02-20T10:12:08.594Z,20.67
2019-02-20T10:14:37.952Z,14.07
2019-02-20T10:17:07.274Z,16.67
2019-02-20T10:19:36.611Z,15.17
2019-02-20T10:22:05.953Z,16.90
2019-02-20T10:24:35.302Z,12.93
2019-02-20T10:27:04.569Z,13.30
2019-02-20T10:29:33.852Z,14.97
2019-02-20T10:32:03.185Z,12.27
2019-02-20T10:34:32.536Z,14.13
2019-02-20T10:37:01.856Z,13.03
2019-02-20T10:39:31.151Z,14.10
2019-02-20T10:42:00.460Z,15.43
2019-02-20T10:44:29.780Z,11.23
2019-02-20T10:46:59.159Z,11.90
2019-02-20T10:49:28.482Z,12.33
2019-02-20T10:51:57.793Z,13.50
2019-02-20T10:54:27.115Z,11.10
2019-02-20T10:56:56.475Z,13.23
2019-02-20T10:59:25.772Z,12.60
2019-02-20T11:01:55.152Z,13.67
2019-02-20T11:04:24.588Z,14.73
2019-02-20T11:06:53.945Z,13.60
2019-02-20T11:09:23.308Z,11.47
2019-02-20T11:11:54.411Z,14.57
2019-02-20T11:14:23.679Z,14.80
2019-02-20T11:16:53.059Z,11.23
2019-02-20T11:19:21.816Z,11.03
2019-02-20T11:21:51.118Z,11.33
2019-02-20T11:24:20.454Z,10.87
2019-02-20T11:26:54.682Z,11.30
2019-02-20T11:29:20.833Z,13.23
2019-02-20T11:31:50.474Z,12.40
2019-02-20T11:34:19.888Z,11.60
2019-02-20T11:36:49.515Z,10.60
2019-02-20T11:39:18.881Z,13.03
2019-02-20T11:41:48.183Z,28.17
2019-02-20T11:44:21.078Z,13.85
2019-02-20T11:46:48.687Z,12.53
2019-02-20T11:49:17.995Z,11.60
2019-02-20T11:51:47.431Z,14.00
2019-02-20T11:54:16.772Z,11.93
2019-02-20T11:56:46.082Z,13.70
2019-02-20T11:59:15.371Z,12.00
2019-02-20T12:01:44.684Z,9.77
2019-02-20T12:04:13.961Z,10.07
2019-02-20T12:06:43.309Z,10.63
2019-02-20T12:09:12.656Z,11.03
2019-02-20T12:11:42.012Z,12.40
2019-02-20T12:14:11.366Z,13.40
2019-02-20T12:16:40.750Z,9.83
2019-02-20T12:19:09.975Z,9.50
2019-02-20T12:21:39.326Z,9.50
2019-02-20T12:24:08.666Z,10.27
2019-02-20T12:26:37.996Z,10.28
2019-02-20T12:29:07.305Z,10.40
2019-02-20T12:31:36.635Z,7.60
2019-02-20T12:34:05.941Z,7.60
2019-02-20T12:36:35.214Z,7.93
2019-02-20T12:39:05.756Z,7.63
2019-02-20T12:41:35.078Z,7.60
2019-02-20T12:44:04.526Z,8.43
2019-02-20T12:46:33.868Z,8.83
2019-02-20T12:49:03.203Z,8.23
2019-02-20T12:51:32.614Z,6.43
2019-02-20T12:54:01.906Z,6.33
2019-02-20T12:56:31.236Z,7.73
2019-02-20T12:59:07.670Z,7.33
2019-02-20T13:01:31.587Z,6.93
2019-02-20T13:04:00.912Z,5.13
2019-02-20T13:06:30.247Z,5.27
2019-02-20T13:08:59.536Z,5.57
2019-02-20T13:11:28.840Z,6.03
2019-02-20T13:13:58.135Z,6.23
2019-02-20T13:16:27.448Z,5.53
2019-02-20T13:18:56.772Z,6.67
2019-02-20T13:21:26.121Z,5.83
2019-02-20T13:23:55.555Z,6.80
2019-02-20T13:26:24.942Z,6.67
2019-02-20T13:28:54.225Z,5.17
2019-02-20T13:31:23.596Z,4.90
2019-02-20T13:33:52.886Z,5.53
2019-02-20T13:36:22.190Z,6.50
2019-02-20T13:38:52.809Z,6.83
2019-02-20T13:41:22.167Z,5.50
2019-02-20T13:43:51.556Z,5.33
2019-02-20T13:46:20.966Z,6.47
2019-02-20T13:48:50.290Z,6.47
2019-02-20T13:51:19.632Z,6.10
2019-02-20T13:53:49.517Z,6.37
2019-02-20T13:56:18.864Z,5.77
2019-02-20T13:58:48.283Z,5.63
2019-02-20T14:01:17.627Z,6.40
2019-02-20T14:03:46.999Z,7.57
2019-02-20T14:06:16.342Z,5.80
2019-02-20T14:08:45.728Z,6.40
2019-02-20T14:11:15.025Z,7.37
2019-02-20T14:13:44.441Z,8.33
2019-02-20T14:16:14.866Z,9.70
2019-02-20T14:18:44.373Z,7.60
2019-02-20T14:21:13.773Z,6.37
2019-02-20T14:23:43.208Z,9.30
2019-02-20T14:26:12.538Z,8.17
2019-02-20T14:28:41.957Z,6.17
2019-02-20T14:31:11.380Z,7.73
2019-02-20T14:33:40.763Z,11.40
2019-02-20T14:36:10.078Z,5.50
2019-02-20T14:38:39.713Z,9.17
2019-02-20T14:41:09.388Z,7.93
2019-02-20T14:43:38.904Z,5.70
2019-02-20T14:46:08.270Z,6.87
2019-02-20T14:48:37.642Z,5.80
2019-02-20T14:51:07.104Z,8.77
2019-02-20T14:53:36.460Z,6.80
2019-02-20T14:56:06.251Z,6.10
2019-02-20T14:58:35.566Z,7.23
2019-02-20T15:01:06.150Z,6.10
2019-02-20T15:03:35.692Z,5.23
2019-02-20T15:06:05.063Z,5.43
2019-02-20T15:08:34.392Z,7.13
2019-02-20T15:11:05.125Z,6.10
2019-02-20T15:13:34.484Z,7.67
2019-02-20T15:16:03.875Z,7.47
2019-02-20T15:18:33.178Z,11.57
2019-02-20T15:21:02.792Z,9.07
2019-02-20T15:23:32.347Z,6.83
2019-02-20T15:26:02.523Z,8.83
2019-02-20T15:28:33.454Z,7.10
2019-02-20T15:31:03.087Z,8.23
2019-02-20T15:33:32.431Z,10.40
2019-02-20T15:36:01.854Z,8.98
2019-02-20T15:38:31.217Z,7.33
2019-02-20T15:41:00.995Z,8.97
2019-02-20T15:43:30.413Z,8.40
2019-02-20T15:45:59.854Z,8.93
2019-02-20T15:48:29.245Z,7.30
2019-02-20T15:50:58.638Z,8.30
2019-02-20T15:53:27.968Z,6.87
2019-02-20T15:55:57.376Z,9.37
2019-02-20T15:58:27.337Z,8.53
2019-02-20T16:00:56.682Z,8.07
2019-02-20T16:03:26.087Z,9.60
2019-02-20T16:05:55.550Z,8.33
2019-02-20T16:08:25.024Z,7.10
2019-02-20T16:10:55.213Z,10.67
2019-02-20T16:13:24.764Z,6.87
2019-02-20T16:15:54.201Z,7.23
2019-02-20T16:18:23.941Z,8.27
2019-02-20T16:20:53.301Z,6.80
2019-02-20T16:23:22.773Z,6.70
2019-02-20T16:25:52.259Z,8.10
2019-02-20T16:28:21.986Z,7.10
2019-02-20T16:30:51.372Z,7.13
2019-02-20T16:33:20.825Z,7.73
2019-02-20T16:35:50.617Z,6.53
2019-02-20T16:38:20.030Z,10.83
2019-02-20T16:40:49.772Z,7.23
2019-02-20T16:45:55.811Z,6.67
2019-02-20T16:48:25.186Z,8.97
2019-02-20T16:50:54.494Z,6.63
2019-02-20T16:53:23.835Z,6.20
2019-02-20T16:55:53.156Z,6.43
2019-02-20T16:58:22.432Z,6.57
2019-02-20T17:00:51.780Z,7.33
2019-02-20T17:03:21.514Z,7.07
2019-02-20T17:05:50.875Z,7.20
2019-02-20T17:08:20.258Z,7.63
2019-02-20T17:10:49.604Z,8.70
2019-02-20T17:13:19.094Z,7.97
2019-02-20T17:15:48.613Z,7.97
2019-02-20T17:18:18.014Z,7.13
2019-02-20T17:20:47.358Z,6.03
2019-02-20T17:23:16.871Z,6.53
2019-02-20T17:25:46.315Z,8.07
2019-02-20T17:28:15.886Z,6.90
2019-02-20T17:30:45.318Z,6.03
2019-02-20T17:33:14.667Z,6.60
2019-02-20T17:35:43.967Z,6.87
2019-02-20T17:38:13.920Z,7.50
2019-02-20T17:40:43.516Z,8.57
2019-02-20T17:43:13.039Z,7.93
2019-02-20T17:45:42.488Z,6.77
2019-02-20T17:48:11.889Z,8.47
2019-02-20T17:50:41.286Z,9.83
2019-02-20T17:53:10.717Z,6.50
2019-02-20T17:55:40.095Z,8.80
2019-02-20T17:58:15.194Z,8.30
2019-02-20T18:00:41.217Z,9.30
2019-02-20T18:03:10.569Z,9.07
2019-02-20T18:05:39.940Z,10.77
2019-02-20T18:08:09.235Z,12.10
2019-02-20T18:10:38.544Z,16.33
2019-02-20T18:13:07.869Z,19.07
2019-02-20T18:15:37.277Z,18.33
2019-02-20T18:18:06.642Z,13.67
2019-02-20T18:20:35.973Z,14.30
2019-02-20T18:23:05.382Z,15.63
2019-02-20T18:25:34.721Z,19.73
2019-02-20T18:28:04.094Z,17.40
2019-02-20T18:30:33.432Z,18.13
2019-02-20T18:33:03.207Z,18.10
2019-02-20T18:35:32.543Z,10.60
2019-02-20T18:38:01.838Z,10.63
2019-02-20T18:40:31.450Z,13.30
2019-02-20T18:43:00.818Z,10.90
2019-02-20T18:45:30.070Z,8.57
2019-02-20T18:47:59.483Z,13.93
2019-02-20T18:50:28.780Z,8.73
2019-02-20T18:52:58.218Z,8.87
2019-02-20T18:55:27.612Z,9.60
2019-02-20T18:57:57.034Z,11.17
2019-02-20T19:00:26.543Z,9.47
2019-02-20T19:02:55.928Z,8.90
2019-02-20T19:05:25.314Z,8.67
2019-02-20T19:07:54.738Z,10.27
2019-02-20T19:10:28.879Z,9.33
2019-02-20T19:13:27.159Z,9.07
2019-02-20T19:16:39.006Z,7.40
2019-02-20T19:19:56.406Z,7.47
2019-02-20T19:22:58.254Z,9.20
2019-02-20T19:29:23.229Z,9.00
2019-02-20T19:32:29.680Z,9.80
2019-02-20T19:35:39.927Z,9.23
2019-02-20T19:38:38.753Z,8.57
2019-02-20T19:41:43.837Z,9.20
2019-02-20T19:44:57.557Z,8.80
2019-02-20T19:47:42.284Z,8.27
2019-02-20T19:50:48.686Z,9.10
2019-02-20T19:56:44.261Z,10.63
2019-02-20T19:59:36.175Z,9.63
2019-02-20T20:02:29.536Z,10.70
2019-02-20T20:05:42.769Z,11.40
2019-02-20T20:08:55.971Z,10.77
2019-02-20T20:12:19.938Z,9.57
2019-02-20T20:15:33.788Z,9.23
2019-02-20T20:18:30.709Z,14.23
2019-02-20T20:21:20.197Z,11.40
2019-02-20T20:24:12.727Z,11.40
2019-02-20T20:27:38.838Z,10.73
2019-02-20T20:30:42.464Z,9.67
2019-02-20T20:34:01.813Z,11.13
2019-02-20T20:36:56.615Z,11.13
2019-02-20T20:40:13.400Z,8.60
2019-02-20T20:43:08.801Z,10.57
2019-02-20T20:46:32.625Z,12.37
2019-02-20T20:49:36.545Z,9.33
2019-02-20T20:52:31.341Z,9.43
2019-02-20T20:55:50.530Z,10.57
2019-02-20T20:58:57.192Z,11.83
2019-02-20T21:01:40.645Z,11.10
2019-02-20T21:04:42.404Z,12.33
2019-02-20T21:07:51.004Z,11.20
2019-02-20T21:11:15.380Z,12.83
2019-02-20T21:14:20.201Z,13.48
2019-02-20T21:17:29.607Z,10.73
2019-02-20T21:20:28.661Z,11.57
2019-02-20T21:23:38.719Z,10.63
2019-02-20T21:26:57.999Z,11.80
2019-02-20T21:30:14.239Z,13.97
2019-02-20T21:33:06.601Z,10.80
2019-02-20T21:35:53.540Z,10.80
2019-02-20T21:39:19.085Z,11.27
2019-02-20T21:41:53.091Z,13.07
2019-02-20T21:44:53.291Z,11.80
2019-02-20T21:48:08.702Z,11.20
2019-02-20T21:50:55.670Z,11.20
2019-02-20T21:53:56.325Z,10.97
2019-02-20T21:56:56.432Z,12.37
2019-02-20T22:00:10.844Z,12.45
2019-02-20T22:03:17.477Z,12.87
2019-02-20T22:06:15.869Z,10.23
2019-02-20T22:09:20.913Z,10.70
2019-02-20T22:12:33.717Z,10.93
2019-02-20T22:15:26.800Z,11.33
2019-02-20T22:18:23.910Z,12.83
2019-02-20T22:21:24.483Z,10.60
2019-02-20T22:24:19.900Z,12.87
2019-02-20T22:27:32.588Z,10.53
2019-02-20T22:30:51.574Z,11.03
2019-02-20T22:33:27.142Z,11.90
2019-02-20T22:36:28.094Z,10.73
2019-02-20T22:39:43.355Z,12.83
2019-02-20T22:43:05.927Z,12.37
2019-02-20T22:46:02.838Z,11.60
2019-02-20T22:49:03.386Z,13.43
2019-02-20T22:52:06.185Z,13.97
2019-02-20T22:55:11.240Z,11.77
2019-02-20T22:57:52.926Z,10.30
2019-02-20T23:00:59.519Z,15.13
2019-02-20T23:03:56.343Z,12.53
2019-02-20T23:07:12.686Z,11.70
2019-02-20T23:10:20.187Z,12.60
2019-02-20T23:13:45.349Z,12.50
2019-02-20T23:16:14.690Z,10.67
2019-02-20T23:18:44.060Z,10.50
2019-02-20T23:21:13.355Z,13.23
2019-02-20T23:23:42.696Z,11.20
2019-02-20T23:26:12.023Z,11.97
2019-02-20T23:28:41.289Z,11.77
2019-02-20T23:31:10.567Z,9.67
2019-02-20T23:33:39.864Z,10.83
2019-02-20T23:36:09.186Z,13.37
2019-02-20T23:38:38.511Z,10.80
2019-02-20T23:41:07.842Z,12.13
2019-02-20T23:43:37.146Z,12.67
2019-02-20T23:46:06.476Z,11.63
2019-02-20T23:48:36.101Z,12.27
2019-02-20T23:51:05.412Z,13.30
2019-02-20T23:53:34.738Z,14.50
2019-02-20T23:56:04.055Z,11.63
2019-02-20T23:58:33.379Z,11.03
